sensor_id;sensor_type;location;lat;lon;timestamp;pressure;altitude;pressure_sealevel;temperature;humidity
44872;BME280;30602;51.060;17.226;2023-06-04T00:03:11;102053.41;;;7.30;75.65
44872;BME280;30602;51.060;17.226;2023-06-04T00:06:44;102049.11;;;7.37;76.00
44872;BME280;30602;51.060;17.226;2023-06-04T00:10:35;102051.33;;;7.29;76.55
44872;BME280;30602;51.060;17.226;2023-06-04T00:14:19;102046.41;;;7.15;77.25
44872;BME280;30602;51.060;17.226;2023-06-04T00:17:40;102049.39;;;7.08;78.25
44872;BME280;30602;51.060;17.226;2023-06-04T00:21:03;102051.34;;;7.04;79.20
44872;BME280;30602;51.060;17.226;2023-06-04T00:24:44;102053.25;;;6.95;79.18
44872;BME280;30602;51.060;17.226;2023-06-04T00:28:49;102055.75;;;6.72;79.97
44872;BME280;30602;51.060;17.226;2023-06-04T00:32:41;102059.99;;;6.61;80.27
44872;BME280;30602;51.060;17.226;2023-06-04T00:36:14;102062.74;;;6.49;80.90
44872;BME280;30602;51.060;17.226;2023-06-04T00:39:53;102062.00;;;6.40;81.07
44872;BME280;30602;51.060;17.226;2023-06-04T00:44:08;102060.19;;;6.32;81.15
44872;BME280;30602;51.060;17.226;2023-06-04T00:47:52;102056.48;;;6.20;81.57
44872;BME280;30602;51.060;17.226;2023-06-04T00:51:58;102050.79;;;6.22;82.33
44872;BME280;30602;51.060;17.226;2023-06-04T00:56:13;102030.97;;;5.92;81.88
44872;BME280;30602;51.060;17.226;2023-06-04T00:59:37;102054.17;;;5.99;82.11
44872;BME280;30602;51.060;17.226;2023-06-04T01:07:31;102048.72;;;5.77;82.07
44872;BME280;30602;51.060;17.226;2023-06-04T01:15:18;102028.23;;;5.50;83.85
44872;BME280;30602;51.060;17.226;2023-06-04T01:26:55;102051.51;;;5.98;81.85
44872;BME280;30602;51.060;17.226;2023-06-04T01:30:41;102050.15;;;6.03;82.11
44872;BME280;30602;51.060;17.226;2023-06-04T01:34:09;102049.56;;;6.06;82.15
44872;BME280;30602;51.060;17.226;2023-06-04T01:38:24;102047.52;;;5.86;83.49
44872;BME280;30602;51.060;17.226;2023-06-04T01:42:09;102045.95;;;5.91;83.63
44872;BME280;30602;51.060;17.226;2023-06-04T01:45:31;102050.35;;;5.93;83.79
44872;BME280;30602;51.060;17.226;2023-06-04T01:48:53;102050.71;;;5.87;83.22
44872;BME280;30602;51.060;17.226;2023-06-04T01:52:24;102049.37;;;5.87;83.57
44872;BME280;30602;51.060;17.226;2023-06-04T01:56:28;102051.01;;;5.93;83.91
44872;BME280;30602;51.060;17.226;2023-06-04T02:00:40;102046.34;;;6.11;82.95
44872;BME280;30602;51.060;17.226;2023-06-04T02:04:23;102049.83;;;5.96;82.89
44872;BME280;30602;51.060;17.226;2023-06-04T02:07:46;102049.55;;;5.77;83.81
44872;BME280;30602;51.060;17.226;2023-06-04T02:11:51;102048.94;;;5.76;84.57
44872;BME280;30602;51.060;17.226;2023-06-04T02:15:14;102044.52;;;5.84;85.14
44872;BME280;30602;51.060;17.226;2023-06-04T02:19:16;102047.06;;;5.94;84.79
44872;BME280;30602;51.060;17.226;2023-06-04T02:23:31;102028.06;;;5.67;85.03
44872;BME280;30602;51.060;17.226;2023-06-04T02:27:10;102055.94;;;5.68;85.81
44872;BME280;30602;51.060;17.226;2023-06-04T02:30:45;102052.39;;;5.49;85.26
44872;BME280;30602;51.060;17.226;2023-06-04T02:34:07;102058.08;;;5.49;85.77
44872;BME280;30602;51.060;17.226;2023-06-04T02:38:21;102053.86;;;5.61;86.45
44872;BME280;30602;51.060;17.226;2023-06-04T02:41:43;102057.38;;;5.73;86.22
44872;BME280;30602;51.060;17.226;2023-06-04T02:45:47;102058.74;;;5.60;85.74
44872;BME280;30602;51.060;17.226;2023-06-04T02:50:03;102061.18;;;5.51;85.59
44872;BME280;30602;51.060;17.226;2023-06-04T02:53:37;102060.48;;;5.34;84.33
44872;BME280;30602;51.060;17.226;2023-06-04T02:57:52;102059.70;;;5.48;86.24
44872;BME280;30602;51.060;17.226;2023-06-04T03:01:32;102051.56;;;5.59;86.19
44872;BME280;30602;51.060;17.226;2023-06-04T03:05:25;102059.66;;;5.65;86.15
44872;BME280;30602;51.060;17.226;2023-06-04T03:12:47;102069.75;;;5.74;85.47
44872;BME280;30602;51.060;17.226;2023-06-04T03:16:09;102070.75;;;5.71;86.00
44872;BME280;30602;51.060;17.226;2023-06-04T03:20:23;102070.72;;;5.63;85.02
44872;BME280;30602;51.060;17.226;2023-06-04T03:24:06;102077.57;;;5.75;86.15
44872;BME280;30602;51.060;17.226;2023-06-04T03:31:24;102083.42;;;5.78;87.20
44872;BME280;30602;51.060;17.226;2023-06-04T03:34:46;102087.26;;;5.90;87.37
44872;BME280;30602;51.060;17.226;2023-06-04T03:38:52;102090.91;;;6.00;87.57
44872;BME280;30602;51.060;17.226;2023-06-04T03:42:31;102086.59;;;6.26;86.48
44872;BME280;30602;51.060;17.226;2023-06-04T03:46:25;102084.91;;;6.51;86.30
44872;BME280;30602;51.060;17.226;2023-06-04T03:50:14;102080.84;;;6.69;85.87
44872;BME280;30602;51.060;17.226;2023-06-04T03:54:30;102079.74;;;6.79;85.50
44872;BME280;30602;51.060;17.226;2023-06-04T03:58:24;102084.46;;;7.03;84.51
44872;BME280;30602;51.060;17.226;2023-06-04T04:02:55;102081.91;;;7.17;84.21
44872;BME280;30602;51.060;17.226;2023-06-04T04:07:10;102083.27;;;7.39;85.09
44872;BME280;30602;51.060;17.226;2023-06-04T04:11:23;102083.87;;;7.66;83.91
44872;BME280;30602;51.060;17.226;2023-06-04T04:14:46;102081.68;;;7.82;84.15
44872;BME280;30602;51.060;17.226;2023-06-04T04:18:42;102085.09;;;8.03;82.79
44872;BME280;30602;51.060;17.226;2023-06-04T04:22:06;102077.24;;;8.17;82.90
44872;BME280;30602;51.060;17.226;2023-06-04T04:25:48;102074.63;;;8.36;82.82
44872;BME280;30602;51.060;17.226;2023-06-04T04:30:15;102082.33;;;8.65;82.31
44872;BME280;30602;51.060;17.226;2023-06-04T04:33:58;102067.27;;;8.68;81.81
44872;BME280;30602;51.060;17.226;2023-06-04T04:41:48;102080.40;;;9.18;81.06
44872;BME280;30602;51.060;17.226;2023-06-04T04:45:08;102082.84;;;9.26;81.27
44872;BME280;30602;51.060;17.226;2023-06-04T04:48:34;102075.30;;;9.35;79.67
44872;BME280;30602;51.060;17.226;2023-06-04T04:52:13;102084.23;;;9.61;79.18
44872;BME280;30602;51.060;17.226;2023-06-04T04:56:04;102083.76;;;9.91;78.14
44872;BME280;30602;51.060;17.226;2023-06-04T04:59:37;102083.59;;;10.28;77.03
44872;BME280;30602;51.060;17.226;2023-06-04T05:03:18;102082.90;;;10.50;76.42
44872;BME280;30602;51.060;17.226;2023-06-04T05:07:11;102088.16;;;10.91;71.07
44872;BME280;30602;51.060;17.226;2023-06-04T05:11:17;102086.66;;;11.01;73.69
44872;BME280;30602;51.060;17.226;2023-06-04T05:15:11;102086.97;;;11.28;70.48
44872;BME280;30602;51.060;17.226;2023-06-04T05:19:59;102081.53;;;11.56;71.32
44872;BME280;30602;51.060;17.226;2023-06-04T05:23:38;102080.75;;;11.68;73.65
44872;BME280;30602;51.060;17.226;2023-06-04T05:27:33;102076.41;;;12.00;67.37
44872;BME280;30602;51.060;17.226;2023-06-04T05:31:07;102078.70;;;12.39;66.20
44872;BME280;30602;51.060;17.226;2023-06-04T05:35:09;102083.63;;;12.24;65.82
44872;BME280;30602;51.060;17.226;2023-06-04T05:38:52;102079.74;;;12.39;65.72
44872;BME280;30602;51.060;17.226;2023-06-04T05:42:35;102082.21;;;12.90;64.10
44872;BME280;30602;51.060;17.226;2023-06-04T05:45:58;102076.87;;;13.01;62.75
44872;BME280;30602;51.060;17.226;2023-06-04T05:50:04;102079.35;;;13.31;59.79
44872;BME280;30602;51.060;17.226;2023-06-04T05:53:53;102078.77;;;13.52;60.06
44872;BME280;30602;51.060;17.226;2023-06-04T05:57:16;102076.04;;;13.78;58.63
44872;BME280;30602;51.060;17.226;2023-06-04T06:00:35;102076.74;;;13.76;60.72
44872;BME280;30602;51.060;17.226;2023-06-04T06:04:05;102077.09;;;13.80;58.72
44872;BME280;30602;51.060;17.226;2023-06-04T06:11:18;102076.76;;;14.41;54.92
44872;BME280;30602;51.060;17.226;2023-06-04T06:14:42;102076.52;;;14.45;55.93
44872;BME280;30602;51.060;17.226;2023-06-04T06:18:09;102080.12;;;14.59;56.91
44872;BME280;30602;51.060;17.226;2023-06-04T06:22:23;102078.40;;;15.17;54.33
44872;BME280;30602;51.060;17.226;2023-06-04T06:29:51;102080.08;;;15.07;56.02
44872;BME280;30602;51.060;17.226;2023-06-04T06:33:11;102084.22;;;15.22;56.13
44872;BME280;30602;51.060;17.226;2023-06-04T06:36:53;102087.01;;;15.35;54.06
44872;BME280;30602;51.060;17.226;2023-06-04T06:40:36;102086.91;;;15.57;51.24
44872;BME280;30602;51.060;17.226;2023-06-04T06:44:28;102090.60;;;15.37;53.90
44872;BME280;30602;51.060;17.226;2023-06-04T06:48:10;102088.34;;;15.68;51.85
44872;BME280;30602;51.060;17.226;2023-06-04T06:51:53;102088.85;;;15.38;53.56
44872;BME280;30602;51.060;17.226;2023-06-04T06:55:47;102086.69;;;15.77;52.05
44872;BME280;30602;51.060;17.226;2023-06-04T06:59:10;102088.01;;;16.20;53.59
44872;BME280;30602;51.060;17.226;2023-06-04T07:02:31;102082.09;;;16.51;50.11
44872;BME280;30602;51.060;17.226;2023-06-04T07:06:46;102081.57;;;16.56;50.70
44872;BME280;30602;51.060;17.226;2023-06-04T07:10:27;102082.59;;;16.66;51.89
44872;BME280;30602;51.060;17.226;2023-06-04T07:13:50;102077.16;;;16.77;50.50
44872;BME280;30602;51.060;17.226;2023-06-04T07:17:25;102079.83;;;16.77;48.09
44872;BME280;30602;51.060;17.226;2023-06-04T07:20:48;102081.46;;;17.06;49.12
44872;BME280;30602;51.060;17.226;2023-06-04T07:25:02;102082.35;;;16.69;50.11
44872;BME280;30602;51.060;17.226;2023-06-04T07:28:23;102081.36;;;16.79;50.56
44872;BME280;30602;51.060;17.226;2023-06-04T07:31:43;102077.72;;;17.43;47.60
44872;BME280;30602;51.060;17.226;2023-06-04T07:35:26;102080.23;;;17.62;48.82
44872;BME280;30602;51.060;17.226;2023-06-04T07:39:20;102086.09;;;17.77;49.06
44872;BME280;30602;51.060;17.226;2023-06-04T07:42:40;102082.13;;;17.93;47.68
44872;BME280;30602;51.060;17.226;2023-06-04T07:46:34;102081.91;;;18.00;47.04
44872;BME280;30602;51.060;17.226;2023-06-04T07:51:12;102080.28;;;17.97;46.43
44872;BME280;30602;51.060;17.226;2023-06-04T07:55:03;102076.09;;;18.12;45.06
44872;BME280;30602;51.060;17.226;2023-06-04T07:58:34;102073.38;;;18.55;45.23
44872;BME280;30602;51.060;17.226;2023-06-04T08:02:39;102076.59;;;18.36;46.14
44872;BME280;30602;51.060;17.226;2023-06-04T08:05:58;102068.24;;;18.09;45.91
44872;BME280;30602;51.060;17.226;2023-06-04T08:09:37;102066.36;;;18.21;44.89
44872;BME280;30602;51.060;17.226;2023-06-04T08:13:00;102062.70;;;18.30;45.31
44872;BME280;30602;51.060;17.226;2023-06-04T08:16:54;102062.96;;;18.65;45.05
44872;BME280;30602;51.060;17.226;2023-06-04T08:20:13;102059.91;;;18.69;44.56
44872;BME280;30602;51.060;17.226;2023-06-04T08:23:36;102065.38;;;19.02;41.14
44872;BME280;30602;51.060;17.226;2023-06-04T08:27:19;102065.27;;;19.14;39.53
44872;BME280;30602;51.060;17.226;2023-06-04T08:30:39;102060.46;;;19.23;36.61
44872;BME280;30602;51.060;17.226;2023-06-04T08:33:59;102063.85;;;19.22;36.97
44872;BME280;30602;51.060;17.226;2023-06-04T08:41:59;102065.31;;;19.36;37.14
44872;BME280;30602;51.060;17.226;2023-06-04T08:46:05;102062.90;;;19.44;36.60
44872;BME280;30602;51.060;17.226;2023-06-04T08:50:00;102064.07;;;19.53;35.88
44872;BME280;30602;51.060;17.226;2023-06-04T08:53:20;102059.89;;;19.66;38.16
44872;BME280;30602;51.060;17.226;2023-06-04T08:56:41;102059.62;;;19.74;36.43
44872;BME280;30602;51.060;17.226;2023-06-04T09:00:22;102067.33;;;19.99;37.91
44872;BME280;30602;51.060;17.226;2023-06-04T09:03:55;102068.38;;;20.00;34.67
44872;BME280;30602;51.060;17.226;2023-06-04T09:07:55;102065.28;;;20.11;36.92
44872;BME280;30602;51.060;17.226;2023-06-04T09:12:02;102069.83;;;19.92;37.63
44872;BME280;30602;51.060;17.226;2023-06-04T09:15:46;102065.50;;;19.88;36.07
44872;BME280;30602;51.060;17.226;2023-06-04T09:19:29;102064.20;;;20.14;36.37
44872;BME280;30602;51.060;17.226;2023-06-04T09:23:58;102064.75;;;20.13;36.24
44872;BME280;30602;51.060;17.226;2023-06-04T09:28:06;102060.39;;;20.18;36.82
44872;BME280;30602;51.060;17.226;2023-06-04T09:31:28;102064.37;;;20.30;34.22
44872;BME280;30602;51.060;17.226;2023-06-04T09:35:09;102062.72;;;20.24;35.04
44872;BME280;30602;51.060;17.226;2023-06-04T09:39:28;102068.09;;;20.41;34.27
44872;BME280;30602;51.060;17.226;2023-06-04T09:43:23;102064.86;;;20.53;33.91
44872;BME280;30602;51.060;17.226;2023-06-04T09:51:21;102056.30;;;20.41;35.79
44872;BME280;30602;51.060;17.226;2023-06-04T09:55:01;102053.44;;;20.58;35.47
44872;BME280;30602;51.060;17.226;2023-06-04T09:59:03;102049.12;;;20.42;35.72
44872;BME280;30602;51.060;17.226;2023-06-04T10:02:34;102047.20;;;20.68;35.16
44872;BME280;30602;51.060;17.226;2023-06-04T10:06:15;102039.87;;;20.86;35.57
44872;BME280;30602;51.060;17.226;2023-06-04T10:09:58;102043.02;;;21.17;33.89
44872;BME280;30602;51.060;17.226;2023-06-04T10:17:44;102033.24;;;21.00;32.59
44872;BME280;30602;51.060;17.226;2023-06-04T10:21:29;102027.35;;;21.12;33.50
44872;BME280;30602;51.060;17.226;2023-06-04T10:25:04;102028.81;;;21.18;33.09
44872;BME280;30602;51.060;17.226;2023-06-04T10:28:36;102027.73;;;21.20;33.71
44872;BME280;30602;51.060;17.226;2023-06-04T10:32:44;102018.60;;;21.24;34.18
44872;BME280;30602;51.060;17.226;2023-06-04T10:40:19;102028.09;;;21.49;32.09
44872;BME280;30602;51.060;17.226;2023-06-04T10:43:52;102024.20;;;21.49;31.46
44872;BME280;30602;51.060;17.226;2023-06-04T10:47:39;102026.24;;;21.42;30.47
44872;BME280;30602;51.060;17.226;2023-06-04T10:51:03;102016.77;;;21.55;32.79
44872;BME280;30602;51.060;17.226;2023-06-04T10:54:27;102013.35;;;21.73;33.33
44872;BME280;30602;51.060;17.226;2023-06-04T10:58:39;102012.24;;;21.96;33.54
44872;BME280;30602;51.060;17.226;2023-06-04T11:02:08;102007.62;;;22.10;33.28
44872;BME280;30602;51.060;17.226;2023-06-04T11:05:35;102004.75;;;22.05;31.30
44872;BME280;30602;51.060;17.226;2023-06-04T11:17:53;101998.77;;;22.30;31.64
44872;BME280;30602;51.060;17.226;2023-06-04T11:21:35;101977.65;;;22.07;30.67
44872;BME280;30602;51.060;17.226;2023-06-04T12:29:00;101972.96;;;22.20;28.91
44872;BME280;30602;51.060;17.226;2023-06-04T12:32:54;101969.59;;;22.33;29.59
44872;BME280;30602;51.060;17.226;2023-06-04T12:36:14;101977.05;;;22.55;29.91
44872;BME280;30602;51.060;17.226;2023-06-04T12:40:12;101976.24;;;22.68;29.69
44872;BME280;30602;51.060;17.226;2023-06-04T12:43:45;101967.39;;;22.63;29.71
44872;BME280;30602;51.060;17.226;2023-06-04T12:47:20;101970.06;;;22.99;31.38
44872;BME280;30602;51.060;17.226;2023-06-04T12:50:39;101967.70;;;23.31;30.43
44872;BME280;30602;51.060;17.226;2023-06-04T12:54:22;101970.43;;;23.17;29.50
44872;BME280;30602;51.060;17.226;2023-06-04T12:58:40;101968.58;;;22.76;27.60
44872;BME280;30602;51.060;17.226;2023-06-04T13:02:29;101969.21;;;22.72;28.18
44872;BME280;30602;51.060;17.226;2023-06-04T13:06:45;101968.49;;;22.53;26.64
44872;BME280;30602;51.060;17.226;2023-06-04T13:10:16;101968.40;;;22.60;27.68
44872;BME280;30602;51.060;17.226;2023-06-04T13:18:05;101963.29;;;22.85;28.96
44872;BME280;30602;51.060;17.226;2023-06-04T13:21:26;101964.92;;;22.98;28.95
44872;BME280;30602;51.060;17.226;2023-06-04T13:25:08;101962.52;;;22.90;28.20
44872;BME280;30602;51.060;17.226;2023-06-04T13:29:12;101950.37;;;22.89;27.90
44872;BME280;30602;51.060;17.226;2023-06-04T13:32:36;101950.21;;;23.23;27.99
44872;BME280;30602;51.060;17.226;2023-06-04T13:36:19;101948.71;;;23.14;28.65
44872;BME280;30602;51.060;17.226;2023-06-04T13:39:51;101947.23;;;23.13;28.31
44872;BME280;30602;51.060;17.226;2023-06-04T13:44:05;101941.38;;;23.41;28.92
44872;BME280;30602;51.060;17.226;2023-06-04T13:48:12;101941.29;;;23.55;29.82
44872;BME280;30602;51.060;17.226;2023-06-04T13:51:39;101930.60;;;23.77;29.49
44872;BME280;30602;51.060;17.226;2023-06-04T13:55:07;101929.16;;;23.88;28.48
44872;BME280;30602;51.060;17.226;2023-06-04T13:58:50;101931.23;;;23.72;28.86
44872;BME280;30602;51.060;17.226;2023-06-04T14:02:15;101935.72;;;23.29;29.08
44872;BME280;30602;51.060;17.226;2023-06-04T14:09:37;101932.48;;;23.10;30.02
44872;BME280;30602;51.060;17.226;2023-06-04T14:12:57;101921.30;;;22.94;29.94
44872;BME280;30602;51.060;17.226;2023-06-04T14:16:49;101937.85;;;23.04;29.04
44872;BME280;30602;51.060;17.226;2023-06-04T14:20:57;101930.61;;;23.16;30.50
44872;BME280;30602;51.060;17.226;2023-06-04T14:24:48;101926.34;;;23.09;29.31
44872;BME280;30602;51.060;17.226;2023-06-04T14:28:31;101926.02;;;23.15;29.05
44872;BME280;30602;51.060;17.226;2023-06-04T14:32:33;101927.34;;;23.09;28.81
44872;BME280;30602;51.060;17.226;2023-06-04T14:36:16;101921.63;;;23.11;29.23
44872;BME280;30602;51.060;17.226;2023-06-04T14:40:20;101920.57;;;23.03;29.56
44872;BME280;30602;51.060;17.226;2023-06-04T14:44:34;101919.36;;;22.97;29.31
44872;BME280;30602;51.060;17.226;2023-06-04T14:48:30;101920.02;;;23.04;30.50
44872;BME280;30602;51.060;17.226;2023-06-04T14:52:10;101921.66;;;22.89;29.52
44872;BME280;30602;51.060;17.226;2023-06-04T14:56:03;101921.47;;;22.90;28.80
44872;BME280;30602;51.060;17.226;2023-06-04T14:59:39;101918.96;;;22.99;30.23
44872;BME280;30602;51.060;17.226;2023-06-04T15:03:38;101919.06;;;23.04;29.29
44872;BME280;30602;51.060;17.226;2023-06-04T15:07:01;101916.72;;;22.89;29.19
44872;BME280;30602;51.060;17.226;2023-06-04T15:10:18;101910.93;;;22.82;29.76
44872;BME280;30602;51.060;17.226;2023-06-04T15:14:00;101911.89;;;22.75;28.94
44872;BME280;30602;51.060;17.226;2023-06-04T15:17:20;101911.08;;;22.65;29.61
44872;BME280;30602;51.060;17.226;2023-06-04T15:21:13;101904.52;;;22.74;29.48
44872;BME280;30602;51.060;17.226;2023-06-04T15:24:53;101895.33;;;22.85;29.00
44872;BME280;30602;51.060;17.226;2023-06-04T15:28:46;101896.42;;;22.90;29.45
44872;BME280;30602;51.060;17.226;2023-06-04T15:32:30;101891.59;;;22.66;28.06
44872;BME280;30602;51.060;17.226;2023-06-04T15:36:42;101893.61;;;22.61;28.59
44872;BME280;30602;51.060;17.226;2023-06-04T15:40:16;101893.02;;;22.54;28.43
44872;BME280;30602;51.060;17.226;2023-06-04T15:43:37;101895.41;;;22.56;29.16
44872;BME280;30602;51.060;17.226;2023-06-04T15:47:43;101893.76;;;22.54;28.54
44872;BME280;30602;51.060;17.226;2023-06-04T15:51:19;101900.35;;;22.44;28.29
44872;BME280;30602;51.060;17.226;2023-06-04T15:55:34;101895.05;;;22.32;27.97
44872;BME280;30602;51.060;17.226;2023-06-04T15:59:37;101895.35;;;22.29;28.11
44872;BME280;30602;51.060;17.226;2023-06-04T16:03:00;101892.35;;;22.33;28.11
44872;BME280;30602;51.060;17.226;2023-06-04T16:06:33;101893.60;;;22.47;29.87
44872;BME280;30602;51.060;17.226;2023-06-04T16:10:14;101890.79;;;22.49;27.81
44872;BME280;30602;51.060;17.226;2023-06-04T16:13:37;101891.59;;;22.46;27.19
44872;BME280;30602;51.060;17.226;2023-06-04T16:17:20;101886.41;;;22.45;26.95
44872;BME280;30602;51.060;17.226;2023-06-04T16:20:41;101888.62;;;22.47;27.38
44872;BME280;30602;51.060;17.226;2023-06-04T16:24:54;101887.11;;;22.47;27.83
44872;BME280;30602;51.060;17.226;2023-06-04T16:28:14;101885.29;;;22.56;27.36
44872;BME280;30602;51.060;17.226;2023-06-04T16:31:50;101885.70;;;22.60;25.71
44872;BME280;30602;51.060;17.226;2023-06-04T16:35:35;101888.04;;;22.74;26.10
44872;BME280;30602;51.060;17.226;2023-06-04T16:39:20;101890.02;;;22.72;28.17
44872;BME280;30602;51.060;17.226;2023-06-04T16:43:25;101894.00;;;22.82;25.71
44872;BME280;30602;51.060;17.226;2023-06-04T16:51:00;101894.63;;;22.78;26.85
44872;BME280;30602;51.060;17.226;2023-06-04T16:55:03;101896.48;;;22.74;29.14
44872;BME280;30602;51.060;17.226;2023-06-04T16:58:37;101895.22;;;22.58;29.50
44872;BME280;30602;51.060;17.226;2023-06-04T17:02:32;101894.98;;;22.38;30.85
44872;BME280;30602;51.060;17.226;2023-06-04T17:06:10;101895.92;;;22.35;29.71
44872;BME280;30602;51.060;17.226;2023-06-04T17:09:33;101900.60;;;22.12;29.56
44872;BME280;30602;51.060;17.226;2023-06-04T17:13:39;101898.03;;;22.03;29.42
44872;BME280;30602;51.060;17.226;2023-06-04T17:17:21;101902.75;;;21.99;29.41
44872;BME280;30602;51.060;17.226;2023-06-04T17:20:40;101902.05;;;21.89;28.69
44872;BME280;30602;51.060;17.226;2023-06-04T17:24:19;101901.20;;;21.64;30.40
44872;BME280;30602;51.060;17.226;2023-06-04T17:27:40;101901.48;;;21.41;32.12
44872;BME280;30602;51.060;17.226;2023-06-04T17:31:01;101902.01;;;21.33;32.66
44872;BME280;30602;51.060;17.226;2023-06-04T17:34:24;101906.54;;;21.05;32.99
44872;BME280;30602;51.060;17.226;2023-06-04T17:37:53;101909.30;;;20.89;33.50
44872;BME280;30602;51.060;17.226;2023-06-04T17:41:30;101906.59;;;20.61;35.66
44872;BME280;30602;51.060;17.226;2023-06-04T17:44:55;101908.12;;;20.34;37.37
44872;BME280;30602;51.060;17.226;2023-06-04T17:48:16;101904.06;;;20.08;37.90
44872;BME280;30602;51.060;17.226;2023-06-04T17:51:49;101907.08;;;19.99;39.33
44872;BME280;30602;51.060;17.226;2023-06-04T17:55:31;101907.92;;;19.89;38.10
44872;BME280;30602;51.060;17.226;2023-06-04T18:03:05;101914.22;;;19.60;37.93
44872;BME280;30602;51.060;17.226;2023-06-04T18:06:59;101911.93;;;19.30;38.53
44872;BME280;30602;51.060;17.226;2023-06-04T18:10:24;101913.88;;;19.24;39.46
44872;BME280;30602;51.060;17.226;2023-06-04T18:14:17;101913.52;;;19.08;39.55
44872;BME280;30602;51.060;17.226;2023-06-04T18:22:15;101922.57;;;18.69;39.34
44872;BME280;30602;51.060;17.226;2023-06-04T18:25:57;101923.05;;;18.48;40.98
44872;BME280;30602;51.060;17.226;2023-06-04T18:29:21;101924.44;;;18.32;41.23
44872;BME280;30602;51.060;17.226;2023-06-04T18:32:54;101928.45;;;18.08;44.80
44872;BME280;30602;51.060;17.226;2023-06-04T18:36:44;101930.79;;;17.87;44.05
44872;BME280;30602;51.060;17.226;2023-06-04T18:40:57;101932.22;;;17.72;44.26
44872;BME280;30602;51.060;17.226;2023-06-04T18:44:50;101936.47;;;17.51;45.33
44872;BME280;30602;51.060;17.226;2023-06-04T18:48:34;101939.42;;;17.10;48.14
44872;BME280;30602;51.060;17.226;2023-06-04T18:52:44;101944.46;;;16.59;52.99
44872;BME280;30602;51.060;17.226;2023-06-04T18:56:03;101947.83;;;16.34;51.02
44872;BME280;30602;51.060;17.226;2023-06-04T18:59:38;101950.90;;;16.06;51.60
44872;BME280;30602;51.060;17.226;2023-06-04T19:03:21;101955.70;;;15.94;52.29
44872;BME280;30602;51.060;17.226;2023-06-04T19:06:45;101961.09;;;15.78;54.33
44872;BME280;30602;51.060;17.226;2023-06-04T19:10:08;101970.44;;;15.53;56.01
44872;BME280;30602;51.060;17.226;2023-06-04T19:13:32;101974.73;;;15.23;57.00
44872;BME280;30602;51.060;17.226;2023-06-04T19:16:55;101981.43;;;15.04;57.98
44872;BME280;30602;51.060;17.226;2023-06-04T19:20:14;101990.62;;;14.65;59.54
44872;BME280;30602;51.060;17.226;2023-06-04T19:23:53;101993.12;;;14.41;58.62
44872;BME280;30602;51.060;17.226;2023-06-04T19:27:34;101995.92;;;14.64;54.94
44872;BME280;30602;51.060;17.226;2023-06-04T19:30:57;101998.41;;;14.79;51.83
44872;BME280;30602;51.060;17.226;2023-06-04T19:34:51;102000.52;;;15.05;52.84
44872;BME280;30602;51.060;17.226;2023-06-04T19:38:14;101995.75;;;15.13;53.85
44872;BME280;30602;51.060;17.226;2023-06-04T19:41:54;102002.27;;;14.98;53.71
44872;BME280;30602;51.060;17.226;2023-06-04T19:45:28;101996.97;;;15.06;52.33
44872;BME280;30602;51.060;17.226;2023-06-04T19:49:14;101999.21;;;15.08;52.01
44872;BME280;30602;51.060;17.226;2023-06-04T19:53:10;102003.78;;;14.80;53.70
44872;BME280;30602;51.060;17.226;2023-06-04T19:56:27;101995.84;;;14.39;54.64
44872;BME280;30602;51.060;17.226;2023-06-04T20:00:10;102011.50;;;14.40;56.06
44872;BME280;30602;51.060;17.226;2023-06-04T20:03:34;102010.66;;;14.25;56.41
44872;BME280;30602;51.060;17.226;2023-06-04T20:07:01;102016.06;;;14.23;56.82
44872;BME280;30602;51.060;17.226;2023-06-04T20:14:15;102016.84;;;14.23;55.97
44872;BME280;30602;51.060;17.226;2023-06-04T20:17:39;102019.00;;;14.10;56.65
44872;BME280;30602;51.060;17.226;2023-06-04T20:22:25;102023.39;;;14.01;56.48
44872;BME280;30602;51.060;17.226;2023-06-04T20:26:06;102028.63;;;14.01;55.92
44872;BME280;30602;51.060;17.226;2023-06-04T20:29:56;102032.09;;;14.11;54.85
44872;BME280;30602;51.060;17.226;2023-06-04T20:33:51;102031.59;;;14.17;53.94
44872;BME280;30602;51.060;17.226;2023-06-04T20:37:21;102038.26;;;14.21;54.08
44872;BME280;30602;51.060;17.226;2023-06-04T20:41:27;102039.51;;;14.15;54.75
44872;BME280;30602;51.060;17.226;2023-06-04T20:45:19;102038.39;;;14.14;55.17
44872;BME280;30602;51.060;17.226;2023-06-04T20:48:58;102040.27;;;14.06;55.41
44872;BME280;30602;51.060;17.226;2023-06-04T20:52:58;102038.62;;;13.99;55.09
44872;BME280;30602;51.060;17.226;2023-06-04T20:56:37;102040.92;;;14.08;54.63
44872;BME280;30602;51.060;17.226;2023-06-04T21:00:01;102040.91;;;13.94;55.30
44872;BME280;30602;51.060;17.226;2023-06-04T21:03:35;102043.00;;;13.86;55.59
44872;BME280;30602;51.060;17.226;2023-06-04T21:07:21;102042.78;;;13.84;56.33
44872;BME280;30602;51.060;17.226;2023-06-04T21:10:57;102045.47;;;13.71;57.24
44872;BME280;30602;51.060;17.226;2023-06-04T21:18:38;102046.34;;;13.36;60.71
44872;BME280;30602;51.060;17.226;2023-06-04T21:22:52;102051.46;;;13.16;62.63
44872;BME280;30602;51.060;17.226;2023-06-04T21:26:29;102049.38;;;12.89;62.82
44872;BME280;30602;51.060;17.226;2023-06-04T21:30:05;102049.24;;;12.81;62.80
44872;BME280;30602;51.060;17.226;2023-06-04T21:33:38;102050.19;;;12.64;63.70
44872;BME280;30602;51.060;17.226;2023-06-04T21:37:08;102052.91;;;12.50;64.66
44872;BME280;30602;51.060;17.226;2023-06-04T21:41:14;102056.54;;;12.37;65.44
44872;BME280;30602;51.060;17.226;2023-06-04T21:45:05;102060.61;;;12.15;66.32
44872;BME280;30602;51.060;17.226;2023-06-04T21:49:10;102059.50;;;11.93;66.60